sensor_id;sensor_type;location;lat;lon;timestamp;P1;durP1;ratioP1;P2;durP2;ratioP2
17967;SDS011;9109;48.050;11.696;2022-07-30T03:48:24;3.08;;;2.40;;
17967;SDS011;9109;48.050;11.696;2022-07-30T03:51:27;8.88;;;2.35;;
17967;SDS011;9109;48.050;11.696;2022-07-30T03:54:29;3.78;;;2.05;;
17967;SDS011;9109;48.050;11.696;2022-07-30T03:57:33;6.50;;;2.42;;
17967;SDS011;9109;48.050;11.696;2022-07-30T04:00:36;3.08;;;2.28;;
17967;SDS011;9109;48.050;11.696;2022-07-30T04:03:41;3.00;;;2.15;;
17967;SDS011;9109;48.050;11.696;2022-07-30T04:06:43;4.22;;;2.17;;
17967;SDS011;9109;48.050;11.696;2022-07-30T04:09:45;4.05;;;2.17;;
17967;SDS011;9109;48.050;11.696;2022-07-30T04:12:47;9.32;;;2.10;;
17967;SDS011;9109;48.050;11.696;2022-07-30T04:15:50;5.97;;;2.20;;
17967;SDS011;9109;48.050;11.696;2022-07-30T04:18:58;3.75;;;2.30;;
17967;SDS011;9109;48.050;11.696;2022-07-30T04:22:02;2.67;;;2.25;;
17967;SDS011;9109;48.050;11.696;2022-07-30T04:25:08;4.32;;;2.20;;
17967;SDS011;9109;48.050;11.696;2022-07-30T04:28:10;5.82;;;1.98;;
17967;SDS011;9109;48.050;11.696;2022-07-30T04:31:13;5.43;;;2.10;;
17967;SDS011;9109;48.050;11.696;2022-07-30T04:34:17;4.10;;;2.10;;
17967;SDS011;9109;48.050;11.696;2022-07-30T04:37:20;6.47;;;2.30;;
17967;SDS011;9109;48.050;11.696;2022-07-30T04:40:23;4.78;;;2.17;;
17967;SDS011;9109;48.050;11.696;2022-07-30T04:43:25;5.18;;;2.33;;
17967;SDS011;9109;48.050;11.696;2022-07-30T04:46:27;7.60;;;2.20;;
17967;SDS011;9109;48.050;11.696;2022-07-30T04:49:30;5.95;;;2.53;;
17967;SDS011;9109;48.050;11.696;2022-07-30T04:52:33;5.75;;;2.30;;
17967;SDS011;9109;48.050;11.696;2022-07-30T04:55:36;3.35;;;2.28;;
17967;SDS011;9109;48.050;11.696;2022-07-30T04:58:42;5.40;;;2.30;;
17967;SDS011;9109;48.050;11.696;2022-07-30T05:01:47;10.23;;;2.70;;
17967;SDS011;9109;48.050;11.696;2022-07-30T05:04:51;11.52;;;3.08;;
17967;SDS011;9109;48.050;11.696;2022-07-30T05:07:55;3.53;;;2.40;;
17967;SDS011;9109;48.050;11.696;2022-07-30T05:10:57;3.67;;;2.65;;
17967;SDS011;9109;48.050;11.696;2022-07-30T05:13:59;5.50;;;2.88;;
17967;SDS011;9109;48.050;11.696;2022-07-30T05:17:01;5.20;;;2.35;;
17967;SDS011;9109;48.050;11.696;2022-07-30T05:20:05;5.72;;;2.88;;
17967;SDS011;9109;48.050;11.696;2022-07-30T05:23:08;10.07;;;2.85;;
17967;SDS011;9109;48.050;11.696;2022-07-30T05:26:10;4.03;;;2.72;;
17967;SDS011;9109;48.050;11.696;2022-07-30T05:29:12;4.60;;;2.75;;
17967;SDS011;9109;48.050;11.696;2022-07-30T05:32:16;7.32;;;2.50;;
17967;SDS011;9109;48.050;11.696;2022-07-30T05:35:19;5.15;;;3.13;;
17967;SDS011;9109;48.050;11.696;2022-07-30T05:38:21;6.50;;;2.90;;
17967;SDS011;9109;48.050;11.696;2022-07-30T05:41:23;4.20;;;2.50;;
17967;SDS011;9109;48.050;11.696;2022-07-30T05:44:26;7.88;;;2.80;;
17967;SDS011;9109;48.050;11.696;2022-07-30T05:47:28;4.88;;;2.58;;
17967;SDS011;9109;48.050;11.696;2022-07-30T05:50:32;4.90;;;2.55;;
17967;SDS011;9109;48.050;11.696;2022-07-30T05:53:33;8.30;;;3.08;;
17967;SDS011;9109;48.050;11.696;2022-07-30T05:56:35;7.35;;;2.50;;
17967;SDS011;9109;48.050;11.696;2022-07-30T05:59:37;11.82;;;3.40;;
17967;SDS011;9109;48.050;11.696;2022-07-30T06:02:39;6.40;;;2.90;;
17967;SDS011;9109;48.050;11.696;2022-07-30T06:05:43;3.10;;;2.60;;
17967;SDS011;9109;48.050;11.696;2022-07-30T06:08:44;7.55;;;3.22;;
17967;SDS011;9109;48.050;11.696;2022-07-30T06:11:49;6.85;;;2.50;;
17967;SDS011;9109;48.050;11.696;2022-07-30T06:14:50;5.63;;;3.28;;
17967;SDS011;9109;48.050;11.696;2022-07-30T06:17:52;7.70;;;2.95;;
17967;SDS011;9109;48.050;11.696;2022-07-30T06:20:56;5.07;;;2.92;;
17967;SDS011;9109;48.050;11.696;2022-07-30T06:23:58;7.95;;;3.05;;
17967;SDS011;9109;48.050;11.696;2022-07-30T06:27:00;5.30;;;3.22;;
17967;SDS011;9109;48.050;11.696;2022-07-30T06:30:03;5.70;;;3.05;;
17967;SDS011;9109;48.050;11.696;2022-07-30T06:33:06;8.25;;;2.92;;
17967;SDS011;9109;48.050;11.696;2022-07-30T06:36:11;10.75;;;2.78;;
17967;SDS011;9109;48.050;11.696;2022-07-30T06:39:15;5.97;;;3.00;;
17967;SDS011;9109;48.050;11.696;2022-07-30T06:42:18;8.10;;;3.17;;
17967;SDS011;9109;48.050;11.696;2022-07-30T06:45:26;5.90;;;3.05;;
17967;SDS011;9109;48.050;11.696;2022-07-30T06:48:30;4.00;;;3.03;;
17967;SDS011;9109;48.050;11.696;2022-07-30T06:51:33;5.20;;;3.20;;
17967;SDS011;9109;48.050;11.696;2022-07-30T06:54:35;9.23;;;3.80;;
17967;SDS011;9109;48.050;11.696;2022-07-30T06:57:37;8.15;;;3.35;;
17967;SDS011;9109;48.050;11.696;2022-07-30T07:00:39;10.85;;;3.75;;
17967;SDS011;9109;48.050;11.696;2022-07-30T07:03:44;6.22;;;3.60;;
17967;SDS011;9109;48.050;11.696;2022-07-30T07:07:00;7.22;;;3.70;;
17967;SDS011;9109;48.050;11.696;2022-07-30T07:10:03;8.48;;;3.63;;
17967;SDS011;9109;48.050;11.696;2022-07-30T07:13:05;5.95;;;3.70;;
17967;SDS011;9109;48.050;11.696;2022-07-30T07:16:10;10.13;;;4.30;;
17967;SDS011;9109;48.050;11.696;2022-07-30T07:19:15;8.75;;;3.67;;
17967;SDS011;9109;48.050;11.696;2022-07-30T07:22:20;5.72;;;3.70;;
17967;SDS011;9109;48.050;11.696;2022-07-30T07:25:24;11.55;;;4.18;;
17967;SDS011;9109;48.050;11.696;2022-07-30T07:28:26;7.63;;;3.70;;
17967;SDS011;9109;48.050;11.696;2022-07-30T07:31:28;6.50;;;4.20;;
17967;SDS011;9109;48.050;11.696;2022-07-30T07:34:30;6.55;;;3.88;;
17967;SDS011;9109;48.050;11.696;2022-07-30T07:37:33;7.05;;;4.18;;
17967;SDS011;9109;48.050;11.696;2022-07-30T07:40:35;6.82;;;4.28;;
17967;SDS011;9109;48.050;11.696;2022-07-30T07:43:37;7.85;;;4.38;;
17967;SDS011;9109;48.050;11.696;2022-07-30T07:46:39;9.98;;;4.43;;
17967;SDS011;9109;48.050;11.696;2022-07-30T07:49:41;7.97;;;4.63;;
17967;SDS011;9109;48.050;11.696;2022-07-30T07:52:44;8.35;;;4.13;;
17967;SDS011;9109;48.050;11.696;2022-07-30T07:55:46;11.02;;;4.82;;
17967;SDS011;9109;48.050;11.696;2022-07-30T07:58:48;7.72;;;4.60;;
17967;SDS011;9109;48.050;11.696;2022-07-30T08:01:53;11.48;;;4.90;;
17967;SDS011;9109;48.050;11.696;2022-07-30T08:04:54;10.30;;;4.68;;
17967;SDS011;9109;48.050;11.696;2022-07-30T08:07:58;7.28;;;4.13;;
17967;SDS011;9109;48.050;11.696;2022-07-30T08:11:00;9.27;;;4.53;;
17967;SDS011;9109;48.050;11.696;2022-07-30T08:14:02;8.65;;;4.78;;
17967;SDS011;9109;48.050;11.696;2022-07-30T08:17:04;12.93;;;5.28;;
17967;SDS011;9109;48.050;11.696;2022-07-30T08:20:06;12.27;;;4.43;;
17967;SDS011;9109;48.050;11.696;2022-07-30T08:23:10;11.93;;;4.75;;
17967;SDS011;9109;48.050;11.696;2022-07-30T08:26:12;16.85;;;5.18;;
17967;SDS011;9109;48.050;11.696;2022-07-30T08:29:14;7.80;;;4.57;;
17967;SDS011;9109;48.050;11.696;2022-07-30T08:32:16;10.18;;;4.03;;
17967;SDS011;9109;48.050;11.696;2022-07-30T08:35:18;14.35;;;4.13;;
17967;SDS011;9109;48.050;11.696;2022-07-30T08:38:23;12.43;;;3.80;;
17967;SDS011;9109;48.050;11.696;2022-07-30T08:41:25;9.20;;;4.25;;
17967;SDS011;9109;48.050;11.696;2022-07-30T08:44:29;13.25;;;3.75;;
17967;SDS011;9109;48.050;11.696;2022-07-30T08:47:32;11.02;;;4.03;;
17967;SDS011;9109;48.050;11.696;2022-07-30T08:50:34;8.32;;;3.78;;
17967;SDS011;9109;48.050;11.696;2022-07-30T08:53:42;11.43;;;3.65;;
17967;SDS011;9109;48.050;11.696;2022-07-30T08:56:46;5.63;;;3.30;;
17967;SDS011;9109;48.050;11.696;2022-07-30T08:59:49;6.55;;;3.45;;
17967;SDS011;9109;48.050;11.696;2022-07-30T09:02:51;5.55;;;3.60;;
17967;SDS011;9109;48.050;11.696;2022-07-30T09:05:56;7.32;;;3.53;;
17967;SDS011;9109;48.050;11.696;2022-07-30T09:08:59;10.07;;;3.15;;
17967;SDS011;9109;48.050;11.696;2022-07-30T09:12:01;6.30;;;3.10;;
17967;SDS011;9109;48.050;11.696;2022-07-30T09:15:06;11.30;;;3.08;;
17967;SDS011;9109;48.050;11.696;2022-07-30T09:18:10;5.70;;;3.10;;
17967;SDS011;9109;48.050;11.696;2022-07-30T09:21:14;7.53;;;3.15;;
17967;SDS011;9109;48.050;11.696;2022-07-30T09:24:18;7.28;;;2.75;;
17967;SDS011;9109;48.050;11.696;2022-07-30T09:27:20;5.32;;;2.88;;
17967;SDS011;9109;48.050;11.696;2022-07-30T09:30:22;7.72;;;3.17;;
17967;SDS011;9109;48.050;11.696;2022-07-30T09:33:31;3.50;;;2.50;;
17967;SDS011;9109;48.050;11.696;2022-07-30T09:36:34;3.75;;;2.50;;
17967;SDS011;9109;48.050;11.696;2022-07-30T09:39:38;6.05;;;2.70;;
17967;SDS011;9109;48.050;11.696;2022-07-30T09:42:42;8.88;;;3.05;;
17967;SDS011;9109;48.050;11.696;2022-07-30T09:45:48;11.35;;;2.60;;
17967;SDS011;9109;48.050;11.696;2022-07-30T09:48:51;3.88;;;2.40;;
17967;SDS011;9109;48.050;11.696;2022-07-30T09:51:53;11.98;;;2.75;;
17967;SDS011;9109;48.050;11.696;2022-07-30T09:54:58;4.60;;;2.67;;
17967;SDS011;9109;48.050;11.696;2022-07-30T09:58:01;7.80;;;3.03;;
17967;SDS011;9109;48.050;11.696;2022-07-30T10:01:07;5.32;;;2.22;;
17967;SDS011;9109;48.050;11.696;2022-07-30T10:04:13;4.45;;;2.33;;
17967;SDS011;9109;48.050;11.696;2022-07-30T10:07:24;8.00;;;2.70;;
17967;SDS011;9109;48.050;11.696;2022-07-30T10:10:28;9.57;;;2.45;;
17967;SDS011;9109;48.050;11.696;2022-07-30T10:13:31;5.38;;;2.78;;
17967;SDS011;9109;48.050;11.696;2022-07-30T10:16:36;7.80;;;2.72;;
17967;SDS011;9109;48.050;11.696;2022-07-30T10:19:38;3.75;;;2.45;;
17967;SDS011;9109;48.050;11.696;2022-07-30T10:22:40;5.78;;;2.80;;
17967;SDS011;9109;48.050;11.696;2022-07-30T10:25:44;8.93;;;2.30;;
17967;SDS011;9109;48.050;11.696;2022-07-30T10:28:47;4.18;;;2.00;;
17967;SDS011;9109;48.050;11.696;2022-07-30T10:31:51;2.95;;;1.98;;
17967;SDS011;9109;48.050;11.696;2022-07-30T10:34:53;4.82;;;2.08;;
17967;SDS011;9109;48.050;11.696;2022-07-30T10:37:55;3.92;;;2.00;;
17967;SDS011;9109;48.050;11.696;2022-07-30T10:41:02;5.82;;;2.53;;
17967;SDS011;9109;48.050;11.696;2022-07-30T10:44:12;5.10;;;2.45;;
17967;SDS011;9109;48.050;11.696;2022-07-30T10:47:35;3.38;;;1.92;;
17967;SDS011;9109;48.050;11.696;2022-07-30T10:50:48;8.38;;;2.47;;
17967;SDS011;9109;48.050;11.696;2022-07-30T10:53:52;4.97;;;2.15;;
17967;SDS011;9109;48.050;11.696;2022-07-30T10:57:03;4.50;;;2.10;;
17967;SDS011;9109;48.050;11.696;2022-07-30T11:00:06;4.32;;;2.30;;
17967;SDS011;9109;48.050;11.696;2022-07-30T11:03:11;4.07;;;1.80;;
17967;SDS011;9109;48.050;11.696;2022-07-30T11:06:23;4.97;;;1.52;;
17967;SDS011;9109;48.050;11.696;2022-07-30T11:09:33;2.90;;;1.80;;
17967;SDS011;9109;48.050;11.696;2022-07-30T11:12:53;5.70;;;1.95;;
17967;SDS011;9109;48.050;11.696;2022-07-30T11:15:56;4.30;;;1.88;;
17967;SDS011;9109;48.050;11.696;2022-07-30T11:19:01;6.35;;;1.67;;
17967;SDS011;9109;48.050;11.696;2022-07-30T11:22:24;5.45;;;2.22;;
17967;SDS011;9109;48.050;11.696;2022-07-30T11:28:48;2.55;;;1.70;;
17967;SDS011;9109;48.050;11.696;2022-07-30T11:31:51;8.55;;;2.33;;
17967;SDS011;9109;48.050;11.696;2022-07-30T11:35:13;2.90;;;1.70;;
17967;SDS011;9109;48.050;11.696;2022-07-30T11:38:20;3.92;;;2.10;;
17967;SDS011;9109;48.050;11.696;2022-07-30T11:41:22;5.22;;;1.88;;
17967;SDS011;9109;48.050;11.696;2022-07-30T11:44:29;4.00;;;1.75;;
17967;SDS011;9109;48.050;11.696;2022-07-30T11:47:31;3.92;;;1.73;;
17967;SDS011;9109;48.050;11.696;2022-07-30T11:50:33;8.65;;;2.25;;
17967;SDS011;9109;48.050;11.696;2022-07-30T11:53:36;6.28;;;2.20;;
17967;SDS011;9109;48.050;11.696;2022-07-30T11:56:48;6.57;;;2.00;;
17967;SDS011;9109;48.050;11.696;2022-07-30T11:59:55;3.53;;;2.00;;
17967;SDS011;9109;48.050;11.696;2022-07-30T12:02:58;6.68;;;2.40;;
17967;SDS011;9109;48.050;11.696;2022-07-30T12:06:08;3.35;;;1.90;;
17967;SDS011;9109;48.050;11.696;2022-07-30T12:09:20;4.40;;;2.15;;
17967;SDS011;9109;48.050;11.696;2022-07-30T12:12:23;3.58;;;2.13;;
17967;SDS011;9109;48.050;11.696;2022-07-30T12:15:30;3.38;;;1.90;;
17967;SDS011;9109;48.050;11.696;2022-07-30T12:18:33;4.50;;;2.15;;
17967;SDS011;9109;48.050;11.696;2022-07-30T12:21:36;6.15;;;1.85;;
17967;SDS011;9109;48.050;11.696;2022-07-30T12:24:37;7.20;;;1.92;;
17967;SDS011;9109;48.050;11.696;2022-07-30T12:27:40;3.65;;;1.95;;
17967;SDS011;9109;48.050;11.696;2022-07-30T12:30:48;3.92;;;2.17;;
17967;SDS011;9109;48.050;11.696;2022-07-30T12:33:50;3.55;;;1.80;;
17967;SDS011;9109;48.050;11.696;2022-07-30T12:36:52;5.63;;;2.00;;
17967;SDS011;9109;48.050;11.696;2022-07-30T12:40:05;4.55;;;2.03;;
17967;SDS011;9109;48.050;11.696;2022-07-30T12:43:08;3.67;;;2.10;;
17967;SDS011;9109;48.050;11.696;2022-07-30T12:46:13;6.22;;;2.13;;
17967;SDS011;9109;48.050;11.696;2022-07-30T12:49:16;6.70;;;1.98;;
17967;SDS011;9109;48.050;11.696;2022-07-30T12:52:22;3.88;;;2.00;;
17967;SDS011;9109;48.050;11.696;2022-07-30T12:55:29;5.55;;;1.90;;
17967;SDS011;9109;48.050;11.696;2022-07-30T12:58:40;8.93;;;1.77;;
17967;SDS011;9109;48.050;11.696;2022-07-30T13:01:44;2.53;;;2.03;;
17967;SDS011;9109;48.050;11.696;2022-07-30T13:04:49;6.95;;;1.80;;
17967;SDS011;9109;48.050;11.696;2022-07-30T13:07:54;5.53;;;2.00;;
17967;SDS011;9109;48.050;11.696;2022-07-30T13:10:58;2.03;;;1.58;;
17967;SDS011;9109;48.050;11.696;2022-07-30T13:14:00;2.40;;;1.60;;
17967;SDS011;9109;48.050;11.696;2022-07-30T13:17:04;5.32;;;1.85;;
17967;SDS011;9109;48.050;11.696;2022-07-30T13:20:08;2.53;;;1.40;;
17967;SDS011;9109;48.050;11.696;2022-07-30T13:23:11;3.25;;;1.70;;
17967;SDS011;9109;48.050;11.696;2022-07-30T13:26:16;11.85;;;2.20;;
17967;SDS011;9109;48.050;11.696;2022-07-30T13:29:18;3.88;;;1.65;;
17967;SDS011;9109;48.050;11.696;2022-07-30T13:32:22;2.28;;;1.60;;
17967;SDS011;9109;48.050;11.696;2022-07-30T13:35:24;5.88;;;1.60;;
17967;SDS011;9109;48.050;11.696;2022-07-30T13:38:26;2.95;;;1.67;;
17967;SDS011;9109;48.050;11.696;2022-07-30T13:41:29;3.08;;;1.95;;
17967;SDS011;9109;48.050;11.696;2022-07-30T13:44:32;2.60;;;1.50;;
17967;SDS011;9109;48.050;11.696;2022-07-30T13:47:35;2.38;;;1.65;;
17967;SDS011;9109;48.050;11.696;2022-07-30T13:50:37;2.58;;;1.20;;
17967;SDS011;9109;48.050;11.696;2022-07-30T13:53:39;4.10;;;2.20;;
17967;SDS011;9109;48.050;11.696;2022-07-30T13:56:41;6.40;;;2.20;;
17967;SDS011;9109;48.050;11.696;2022-07-30T13:59:43;2.90;;;1.67;;
17967;SDS011;9109;48.050;11.696;2022-07-30T14:02:46;5.95;;;1.90;;
17967;SDS011;9109;48.050;11.696;2022-07-30T14:05:48;6.40;;;1.70;;
17967;SDS011;9109;48.050;11.696;2022-07-30T14:08:50;2.78;;;1.50;;
17967;SDS011;9109;48.050;11.696;2022-07-30T14:11:52;2.45;;;1.60;;
17967;SDS011;9109;48.050;11.696;2022-07-30T14:14:54;5.32;;;1.90;;
17967;SDS011;9109;48.050;11.696;2022-07-30T14:17:58;2.30;;;1.52;;
17967;SDS011;9109;48.050;11.696;2022-07-30T14:21:00;3.88;;;1.73;;
17967;SDS011;9109;48.050;11.696;2022-07-30T14:24:03;5.10;;;1.70;;
17967;SDS011;9109;48.050;11.696;2022-07-30T14:27:05;2.83;;;1.63;;
17967;SDS011;9109;48.050;11.696;2022-07-30T14:30:07;2.10;;;1.70;;
17967;SDS011;9109;48.050;11.696;2022-07-30T14:33:11;2.53;;;1.50;;
17967;SDS011;9109;48.050;11.696;2022-07-30T14:36:13;1.92;;;1.73;;
17967;SDS011;9109;48.050;11.696;2022-07-30T14:39:15;4.13;;;1.65;;
17967;SDS011;9109;48.050;11.696;2022-07-30T14:42:17;3.15;;;1.83;;
17967;SDS011;9109;48.050;11.696;2022-07-30T14:45:20;7.00;;;1.70;;
17967;SDS011;9109;48.050;11.696;2022-07-30T14:48:23;6.47;;;1.75;;
17967;SDS011;9109;48.050;11.696;2022-07-30T14:51:25;2.22;;;1.50;;
17967;SDS011;9109;48.050;11.696;2022-07-30T14:54:27;2.65;;;1.50;;
17967;SDS011;9109;48.050;11.696;2022-07-30T14:57:30;3.55;;;1.42;;
17967;SDS011;9109;48.050;11.696;2022-07-30T15:00:32;4.22;;;1.60;;
17967;SDS011;9109;48.050;11.696;2022-07-30T15:03:35;3.78;;;1.85;;
17967;SDS011;9109;48.050;11.696;2022-07-30T15:06:37;3.65;;;1.80;;
17967;SDS011;9109;48.050;11.696;2022-07-30T15:09:40;2.22;;;1.30;;
17967;SDS011;9109;48.050;11.696;2022-07-30T15:12:42;2.80;;;1.63;;
17967;SDS011;9109;48.050;11.696;2022-07-30T15:15:44;4.53;;;1.98;;
17967;SDS011;9109;48.050;11.696;2022-07-30T15:18:47;2.20;;;1.80;;
17967;SDS011;9109;48.050;11.696;2022-07-30T15:21:49;2.90;;;1.40;;
17967;SDS011;9109;48.050;11.696;2022-07-30T15:24:51;3.45;;;1.65;;
17967;SDS011;9109;48.050;11.696;2022-07-30T15:27:53;3.70;;;1.50;;
17967;SDS011;9109;48.050;11.696;2022-07-30T15:30:55;2.85;;;1.50;;
17967;SDS011;9109;48.050;11.696;2022-07-30T15:33:59;3.33;;;1.80;;
17967;SDS011;9109;48.050;11.696;2022-07-30T15:37:02;5.47;;;1.83;;
17967;SDS011;9109;48.050;11.696;2022-07-30T15:40:04;3.25;;;1.70;;
17967;SDS011;9109;48.050;11.696;2022-07-30T15:43:07;2.53;;;1.70;;
17967;SDS011;9109;48.050;11.696;2022-07-30T15:46:09;7.10;;;1.73;;
17967;SDS011;9109;48.050;11.696;2022-07-30T15:49:12;3.33;;;1.60;;
17967;SDS011;9109;48.050;11.696;2022-07-30T15:52:14;3.20;;;1.35;;
17967;SDS011;9109;48.050;11.696;2022-07-30T15:55:17;2.97;;;1.75;;
17967;SDS011;9109;48.050;11.696;2022-07-30T15:58:19;8.75;;;1.35;;
17967;SDS011;9109;48.050;11.696;2022-07-30T16:01:20;6.85;;;1.90;;
17967;SDS011;9109;48.050;11.696;2022-07-30T16:04:24;2.45;;;1.42;;
17967;SDS011;9109;48.050;11.696;2022-07-30T16:07:27;7.63;;;1.55;;
17967;SDS011;9109;48.050;11.696;2022-07-30T16:10:29;6.45;;;1.58;;
17967;SDS011;9109;48.050;11.696;2022-07-30T16:13:31;4.15;;;1.63;;
17967;SDS011;9109;48.050;11.696;2022-07-30T16:16:33;3.25;;;1.85;;
17967;SDS011;9109;48.050;11.696;2022-07-30T16:19:36;4.85;;;1.63;;
17967;SDS011;9109;48.050;11.696;2022-07-30T16:22:41;5.90;;;2.05;;
17967;SDS011;9109;48.050;11.696;2022-07-30T16:25:44;2.83;;;1.40;;
17967;SDS011;9109;48.050;11.696;2022-07-30T16:28:46;3.58;;;1.45;;
17967;SDS011;9109;48.050;11.696;2022-07-30T16:31:48;5.25;;;1.73;;
17967;SDS011;9109;48.050;11.696;2022-07-30T16:34:51;4.82;;;1.40;;
17967;SDS011;9109;48.050;11.696;2022-07-30T16:37:53;2.45;;;1.73;;
17967;SDS011;9109;48.050;11.696;2022-07-30T16:40:56;2.53;;;1.40;;
17967;SDS011;9109;48.050;11.696;2022-07-30T16:43:58;4.22;;;1.30;;
17967;SDS011;9109;48.050;11.696;2022-07-30T16:47:01;3.22;;;1.58;;
17967;SDS011;9109;48.050;11.696;2022-07-30T16:50:05;3.97;;;1.73;;
17967;SDS011;9109;48.050;11.696;2022-07-30T16:53:07;3.28;;;1.60;;
17967;SDS011;9109;48.050;11.696;2022-07-30T16:56:10;2.65;;;1.45;;
17967;SDS011;9109;48.050;11.696;2022-07-30T16:59:12;2.28;;;1.50;;
17967;SDS011;9109;48.050;11.696;2022-07-30T17:02:16;2.42;;;1.60;;
17967;SDS011;9109;48.050;11.696;2022-07-30T17:05:19;2.47;;;1.50;;
17967;SDS011;9109;48.050;11.696;2022-07-30T17:08:21;2.95;;;1.60;;
17967;SDS011;9109;48.050;11.696;2022-07-30T17:11:23;2.65;;;1.50;;
17967;SDS011;9109;48.050;11.696;2022-07-30T17:14:25;5.18;;;1.73;;
17967;SDS011;9109;48.050;11.696;2022-07-30T17:17:26;2.83;;;1.77;;
17967;SDS011;9109;48.050;11.696;2022-07-30T17:20:30;2.05;;;1.58;;
17967;SDS011;9109;48.050;11.696;2022-07-30T17:23:33;3.08;;;1.67;;
17967;SDS011;9109;48.050;11.696;2022-07-30T17:26:35;2.35;;;1.38;;
17967;SDS011;9109;48.050;11.696;2022-07-30T17:29:38;3.53;;;1.77;;
17967;SDS011;9109;48.050;11.696;2022-07-30T17:32:40;4.68;;;1.60;;
17967;SDS011;9109;48.050;11.696;2022-07-30T17:35:43;3.72;;;1.70;;
17967;SDS011;9109;48.050;11.696;2022-07-30T17:38:45;2.03;;;1.40;;
17967;SDS011;9109;48.050;11.696;2022-07-30T17:41:47;2.95;;;1.80;;
17967;SDS011;9109;48.050;11.696;2022-07-30T17:44:49;2.30;;;1.50;;
17967;SDS011;9109;48.050;11.696;2022-07-30T17:47:53;3.13;;;1.67;;
17967;SDS011;9109;48.050;11.696;2022-07-30T17:50:56;2.88;;;1.60;;
17967;SDS011;9109;48.050;11.696;2022-07-30T17:53:58;2.40;;;1.40;;
17967;SDS011;9109;48.050;11.696;2022-07-30T17:57:00;8.07;;;1.70;;
17967;SDS011;9109;48.050;11.696;2022-07-30T18:00:02;2.28;;;1.30;;
17967;SDS011;9109;48.050;11.696;2022-07-30T18:03:05;2.55;;;1.65;;
17967;SDS011;9109;48.050;11.696;2022-07-30T18:06:08;3.08;;;1.65;;
17967;SDS011;9109;48.050;11.696;2022-07-30T18:09:10;4.05;;;1.60;;
17967;SDS011;9109;48.050;11.696;2022-07-30T18:12:12;10.77;;;2.15;;
17967;SDS011;9109;48.050;11.696;2022-07-30T18:15:14;8.57;;;2.00;;
17967;SDS011;9109;48.050;11.696;2022-07-30T18:18:16;5.13;;;1.90;;
17967;SDS011;9109;48.050;11.696;2022-07-30T18:21:19;7.45;;;2.10;;
17967;SDS011;9109;48.050;11.696;2022-07-30T18:24:21;4.50;;;2.10;;
17967;SDS011;9109;48.050;11.696;2022-07-30T18:27:23;12.52;;;2.45;;
17967;SDS011;9109;48.050;11.696;2022-07-30T18:30:25;5.80;;;2.05;;
17967;SDS011;9109;48.050;11.696;2022-07-30T18:33:26;3.00;;;1.70;;
17967;SDS011;9109;48.050;11.696;2022-07-30T18:36:30;3.55;;;2.17;;
17967;SDS011;9109;48.050;11.696;2022-07-30T18:39:32;2.22;;;1.65;;
17967;SDS011;9109;48.050;11.696;2022-07-30T18:42:34;2.90;;;2.05;;
17967;SDS011;9109;48.050;11.696;2022-07-30T18:45:35;5.15;;;2.17;;
17967;SDS011;9109;48.050;11.696;2022-07-30T18:48:37;3.10;;;1.90;;
17967;SDS011;9109;48.050;11.696;2022-07-30T18:51:41;3.17;;;1.95;;
17967;SDS011;9109;48.050;11.696;2022-07-30T18:54:42;10.27;;;2.33;;
17967;SDS011;9109;48.050;11.696;2022-07-30T18:57:44;2.95;;;2.13;;
17967;SDS011;9109;48.050;11.696;2022-07-30T19:00:46;4.43;;;2.75;;
17967;SDS011;9109;48.050;11.696;2022-07-30T19:03:48;5.18;;;2.00;;
17967;SDS011;9109;48.050;11.696;2022-07-30T19:06:52;2.75;;;1.60;;
17967;SDS011;9109;48.050;11.696;2022-07-30T19:09:54;7.40;;;2.10;;
17967;SDS011;9109;48.050;11.696;2022-07-30T19:12:57;5.88;;;2.20;;
17967;SDS011;9109;48.050;11.696;2022-07-30T19:15:59;6.18;;;1.80;;
17967;SDS011;9109;48.050;11.696;2022-07-30T19:19:01;4.43;;;1.92;;
17967;SDS011;9109;48.050;11.696;2022-07-30T19:22:04;3.97;;;1.77;;
17967;SDS011;9109;48.050;11.696;2022-07-30T19:25:07;5.55;;;1.70;;
17967;SDS011;9109;48.050;11.696;2022-07-30T19:28:09;7.15;;;1.67;;
17967;SDS011;9109;48.050;11.696;2022-07-30T19:31:12;4.15;;;2.00;;
17967;SDS011;9109;48.050;11.696;2022-07-30T19:34:15;3.92;;;2.10;;
17967;SDS011;9109;48.050;11.696;2022-07-30T19:37:18;9.43;;;2.47;;
17967;SDS011;9109;48.050;11.696;2022-07-30T19:40:20;6.15;;;2.35;;
17967;SDS011;9109;48.050;11.696;2022-07-30T19:43:22;9.15;;;2.33;;
17967;SDS011;9109;48.050;11.696;2022-07-30T19:46:24;7.78;;;2.17;;
17967;SDS011;9109;48.050;11.696;2022-07-30T19:49:26;6.97;;;2.38;;
17967;SDS011;9109;48.050;11.696;2022-07-30T19:52:29;7.82;;;3.00;;
17967;SDS011;9109;48.050;11.696;2022-07-30T19:55:31;4.43;;;1.90;;
17967;SDS011;9109;48.050;11.696;2022-07-30T19:58:36;4.85;;;1.80;;
17967;SDS011;9109;48.050;11.696;2022-07-30T20:01:38;5.18;;;1.90;;
17967;SDS011;9109;48.050;11.696;2022-07-30T20:04:40;4.20;;;1.70;;
17967;SDS011;9109;48.050;11.696;2022-07-30T20:07:43;12.27;;;1.75;;
17967;SDS011;9109;48.050;11.696;2022-07-30T20:10:46;3.13;;;1.75;;
17967;SDS011;9109;48.050;11.696;2022-07-30T20:13:48;4.18;;;2.30;;
17967;SDS011;9109;48.050;11.696;2022-07-30T20:16:49;5.30;;;2.20;;
17967;SDS011;9109;48.050;11.696;2022-07-30T20:19:51;7.72;;;2.55;;
17967;SDS011;9109;48.050;11.696;2022-07-30T20:22:56;6.22;;;2.13;;
17967;SDS011;9109;48.050;11.696;2022-07-30T20:25:58;3.00;;;2.00;;
17967;SDS011;9109;48.050;11.696;2022-07-30T20:28:59;3.17;;;2.35;;
17967;SDS011;9109;48.050;11.696;2022-07-30T20:32:01;10.85;;;2.53;;
17967;SDS011;9109;48.050;11.696;2022-07-30T20:35:04;4.68;;;2.20;;
17967;SDS011;9109;48.050;11.696;2022-07-30T20:38:08;8.00;;;2.47;;
17967;SDS011;9109;48.050;11.696;2022-07-30T20:41:10;5.30;;;2.22;;
17967;SDS011;9109;48.050;11.696;2022-07-30T20:44:11;7.55;;;2.25;;
17967;SDS011;9109;48.050;11.696;2022-07-30T20:47:14;2.60;;;2.15;;
17967;SDS011;9109;48.050;11.696;2022-07-30T20:50:17;9.85;;;2.38;;
17967;SDS011;9109;48.050;11.696;2022-07-30T20:53:20;2.40;;;1.60;;
17967;SDS011;9109;48.050;11.696;2022-07-30T20:56:23;2.65;;;1.80;;
17967;SDS011;9109;48.050;11.696;2022-07-30T20:59:25;4.85;;;2.40;;
17967;SDS011;9109;48.050;11.696;2022-07-30T21:02:28;4.10;;;2.22;;
17967;SDS011;9109;48.050;11.696;2022-07-30T21:05:29;2.92;;;1.92;;
17967;SDS011;9109;48.050;11.696;2022-07-30T21:08:33;3.72;;;2.38;;
17967;SDS011;9109;48.050;11.696;2022-07-30T21:11:35;4.43;;;1.95;;
17967;SDS011;9109;48.050;11.696;2022-07-30T21:14:36;2.38;;;1.70;;
17967;SDS011;9109;48.050;11.696;2022-07-30T21:17:38;2.90;;;2.20;;
17967;SDS011;9109;48.050;11.696;2022-07-30T21:20:41;3.85;;;2.28;;
17967;SDS011;9109;48.050;11.696;2022-07-30T21:23:45;2.63;;;2.13;;
17967;SDS011;9109;48.050;11.696;2022-07-30T21:26:47;4.10;;;2.30;;
17967;SDS011;9109;48.050;11.696;2022-07-30T21:29:50;3.22;;;2.17;;
17967;SDS011;9109;48.050;11.696;2022-07-30T21:32:52;6.68;;;2.00;;
17967;SDS011;9109;48.050;11.696;2022-07-30T21:35:53;3.13;;;2.10;;
17967;SDS011;9109;48.050;11.696;2022-07-30T21:38:57;3.28;;;2.10;;
17967;SDS011;9109;48.050;11.696;2022-07-30T21:41:58;3.15;;;2.30;;
17967;SDS011;9109;48.050;11.696;2022-07-30T21:45:00;3.75;;;2.17;;
17967;SDS011;9109;48.050;11.696;2022-07-30T21:48:03;4.80;;;2.20;;
17967;SDS011;9109;48.050;11.696;2022-07-30T21:51:05;4.40;;;2.17;;
17967;SDS011;9109;48.050;11.696;2022-07-30T21:54:08;3.72;;;2.50;;
17967;SDS011;9109;48.050;11.696;2022-07-30T21:57:10;6.45;;;2.60;;
17967;SDS011;9109;48.050;11.696;2022-07-30T22:00:13;4.75;;;2.60;;
17967;SDS011;9109;48.050;11.696;2022-07-30T22:03:21;5.18;;;2.35;;
17967;SDS011;9109;48.050;11.696;2022-07-30T22:06:23;5.78;;;2.78;;
17967;SDS011;9109;48.050;11.696;2022-07-30T22:09:26;3.10;;;2.50;;
17967;SDS011;9109;48.050;11.696;2022-07-30T22:12:28;8.60;;;3.20;;